createdAt,value
2017-08-01T00:00:36.356Z,16.93
2017-08-01T00:03:03.855Z,12.03
2017-08-01T00:05:31.383Z,9.07
2017-08-01T00:07:58.887Z,10.57
2017-08-01T00:10:27.151Z,8.67
2017-08-01T00:12:54.667Z,11.13
2017-08-01T00:15:22.163Z,12.23
2017-08-01T00:17:49.682Z,9.20
2017-08-01T00:20:17.178Z,10.30
2017-08-01T00:22:44.696Z,14.00
2017-08-01T00:25:12.211Z,10.63
2017-08-01T00:27:40.495Z,11.93
2017-08-01T00:30:08.754Z,9.20
2017-08-01T00:32:36.274Z,11.87
2017-08-01T00:35:03.774Z,17.87
2017-08-01T00:37:31.274Z,8.97
2017-08-01T00:39:58.794Z,12.83
2017-08-01T00:42:26.299Z,12.13
2017-08-01T00:44:53.811Z,7.37
2017-08-01T00:47:21.314Z,11.20
2017-08-01T00:49:48.831Z,12.77
2017-08-01T00:52:17.102Z,10.50
2017-08-01T00:54:44.618Z,18.83
2017-08-01T00:57:12.118Z,12.53
2017-08-01T00:59:39.643Z,13.77
2017-08-01T01:02:07.134Z,12.83
2017-08-01T01:04:34.637Z,13.10
2017-08-01T01:07:02.154Z,14.00
2017-08-01T01:09:29.658Z,10.17
2017-08-01T01:11:57.178Z,11.37
2017-08-01T01:14:24.687Z,10.37
2017-08-01T01:16:52.198Z,14.73
2017-08-01T01:19:19.711Z,16.17
2017-08-01T01:21:47.222Z,9.47
2017-08-01T01:24:14.730Z,11.43
2017-08-01T01:26:42.247Z,12.60
2017-08-01T01:29:09.755Z,11.53
2017-08-01T01:31:37.258Z,10.27
2017-08-01T01:34:04.771Z,7.83
2017-08-01T01:36:32.268Z,15.80
2017-08-01T01:38:59.783Z,9.10
2017-08-01T01:41:27.290Z,12.60
2017-08-01T01:43:54.802Z,8.13
2017-08-01T01:46:22.300Z,9.23
2017-08-01T01:48:49.823Z,12.20
2017-08-01T01:51:17.327Z,15.47
2017-08-01T01:53:44.839Z,9.83
2017-08-01T01:56:12.338Z,12.10
2017-08-01T01:58:39.838Z,11.47
2017-08-01T02:01:07.351Z,11.43
2017-08-01T02:03:34.866Z,10.63
2017-08-01T02:06:02.379Z,13.87
2017-08-01T02:08:29.878Z,9.30
2017-08-01T02:10:57.396Z,12.80
2017-08-01T02:13:24.897Z,8.37
2017-08-01T02:15:52.419Z,12.40
2017-08-01T02:18:19.919Z,10.47
2017-08-01T02:20:47.459Z,11.30
2017-08-01T02:23:14.958Z,10.20
2017-08-01T02:25:43.221Z,15.10
2017-08-01T02:28:11.513Z,14.17
2017-08-01T02:30:39.775Z,8.53
2017-08-01T02:33:07.307Z,13.80
2017-08-01T02:35:34.819Z,8.80
2017-08-01T02:38:02.331Z,13.60
2017-08-01T02:40:29.831Z,10.90
2017-08-01T02:42:57.351Z,12.40
2017-08-01T02:45:24.852Z,14.73
2017-08-01T02:47:52.391Z,11.77
2017-08-01T02:50:20.650Z,10.10
2017-08-01T02:52:48.150Z,10.97
2017-08-01T02:55:15.672Z,11.00
2017-08-01T02:57:43.173Z,9.50
2017-08-01T03:00:10.686Z,10.23
2017-08-01T03:02:38.187Z,13.00
2017-08-01T03:05:05.702Z,14.20
2017-08-01T03:07:33.203Z,10.00
2017-08-01T03:10:00.714Z,11.50
2017-08-01T03:12:28.220Z,12.20
2017-08-01T03:14:55.742Z,10.40
2017-08-01T03:17:23.243Z,9.67
2017-08-01T03:19:50.742Z,9.73
2017-08-01T03:22:18.259Z,15.03
2017-08-01T03:24:45.762Z,10.10
2017-08-01T03:27:13.275Z,14.50
2017-08-01T03:29:40.778Z,13.20
2017-08-01T03:32:08.296Z,8.70
2017-08-01T03:34:35.794Z,13.43
2017-08-01T03:37:03.319Z,10.03
2017-08-01T03:39:30.818Z,10.70
2017-08-01T03:41:58.339Z,10.97
2017-08-01T03:44:25.848Z,10.53
2017-08-01T03:46:54.118Z,14.60
2017-08-01T03:49:22.399Z,10.33
2017-08-01T03:51:50.666Z,14.00
2017-08-01T03:54:18.183Z,7.83
2017-08-01T03:56:45.682Z,11.73
2017-08-01T03:59:13.969Z,11.93
2017-08-01T04:01:42.230Z,8.60
2017-08-01T04:04:09.751Z,13.30
2017-08-01T04:06:37.251Z,14.67
2017-08-01T04:09:04.765Z,14.00
2017-08-01T04:11:32.274Z,10.13
2017-08-01T04:14:00.534Z,10.27
2017-08-01T04:16:28.047Z,11.30
2017-08-01T04:18:55.538Z,9.67
2017-08-01T04:21:23.054Z,11.73
2017-08-01T04:23:50.563Z,10.70
2017-08-01T04:26:18.083Z,14.10
2017-08-01T04:28:45.591Z,12.27
2017-08-01T04:31:13.115Z,23.70
2017-08-01T04:33:40.611Z,14.23
2017-08-01T04:36:08.919Z,10.07
2017-08-01T04:38:36.422Z,10.40
2017-08-01T04:41:03.923Z,10.13
2017-08-01T04:43:31.442Z,13.77
2017-08-01T04:45:58.942Z,13.77
2017-08-01T04:48:26.556Z,11.67
2017-08-01T04:50:54.049Z,13.73
2017-08-01T04:53:21.578Z,10.40
2017-08-01T04:55:49.075Z,13.73
2017-08-01T04:58:16.614Z,10.20
2017-08-01T05:00:44.874Z,7.13
2017-08-01T05:03:12.395Z,10.73
2017-08-01T05:05:39.891Z,10.13
2017-08-01T05:08:07.391Z,13.30
2017-08-01T05:10:34.913Z,10.40
2017-08-01T05:13:02.413Z,12.37
2017-08-01T05:15:29.923Z,8.63
2017-08-01T05:17:57.422Z,12.80
2017-08-01T05:20:24.935Z,9.10
2017-08-01T05:22:52.434Z,10.90
2017-08-01T05:25:20.792Z,11.30
2017-08-01T05:27:49.058Z,17.93
2017-08-01T05:30:16.602Z,12.60
2017-08-01T05:32:44.098Z,9.03
2017-08-01T05:35:11.599Z,14.00
2017-08-01T05:37:39.115Z,14.83
2017-08-01T05:40:06.619Z,12.10
2017-08-01T05:42:34.134Z,9.90
2017-08-01T05:45:01.647Z,14.70
2017-08-01T05:47:29.163Z,10.80
2017-08-01T05:49:56.671Z,11.67
2017-08-01T05:52:24.190Z,10.33
2017-08-01T05:54:52.714Z,12.20
2017-08-01T05:57:20.270Z,11.43
2017-08-01T05:59:47.782Z,15.40
2017-08-01T06:02:15.284Z,16.53
2017-08-01T06:04:42.806Z,11.70
2017-08-01T06:07:10.299Z,11.23
2017-08-01T06:09:37.806Z,8.30
2017-08-01T06:12:05.314Z,13.73
2017-08-01T06:14:32.845Z,13.90
2017-08-01T06:17:00.338Z,9.17
2017-08-01T06:19:27.858Z,10.07
2017-08-01T06:21:55.354Z,13.90
2017-08-01T06:24:22.875Z,12.93
2017-08-01T06:26:50.374Z,14.20
2017-08-01T06:29:17.875Z,18.67
2017-08-01T06:31:45.392Z,15.63
2017-08-01T06:34:12.891Z,12.20
2017-08-01T06:36:40.410Z,17.27
2017-08-01T06:39:08.674Z,11.83
2017-08-01T06:41:36.195Z,14.27
2017-08-01T06:44:03.695Z,10.73
2017-08-01T06:46:31.206Z,11.20
2017-08-01T06:48:58.702Z,8.50
2017-08-01T06:51:26.234Z,11.53
2017-08-01T06:53:53.731Z,13.13
2017-08-01T06:56:21.235Z,12.60
2017-08-01T06:58:48.753Z,9.17
2017-08-01T07:01:17.023Z,14.87
2017-08-01T07:03:45.307Z,13.23
2017-08-01T07:06:12.814Z,8.87
2017-08-01T07:08:40.339Z,12.60
2017-08-01T07:11:07.846Z,15.40
2017-08-01T07:13:35.366Z,12.00
2017-08-01T07:16:02.863Z,11.73
2017-08-01T07:18:30.386Z,11.80
2017-08-01T07:20:57.888Z,10.00
2017-08-01T07:23:25.383Z,12.47
2017-08-01T07:25:53.658Z,13.03
2017-08-01T07:28:21.967Z,13.03
2017-08-01T07:30:49.491Z,11.50
2017-08-01T07:33:17.760Z,13.27
2017-08-01T07:35:46.043Z,8.90
2017-08-01T07:38:13.547Z,12.07
2017-08-01T07:40:41.057Z,12.23
2017-08-01T07:43:08.563Z,12.13
2017-08-01T07:45:36.107Z,10.23
2017-08-01T07:48:03.612Z,11.63
2017-08-01T07:50:31.115Z,12.03
2017-08-01T07:52:58.635Z,10.50
2017-08-01T07:55:26.907Z,9.60
2017-08-01T07:57:54.426Z,10.30
2017-08-01T08:00:21.935Z,10.30
2017-08-01T08:02:50.216Z,9.93
2017-08-01T08:05:17.723Z,11.70
2017-08-01T08:07:45.242Z,16.50
2017-08-01T08:10:13.507Z,12.40
2017-08-01T08:12:41.796Z,9.00
2017-08-01T08:15:09.294Z,9.83
2017-08-01T08:17:36.801Z,12.00
2017-08-01T08:20:04.351Z,13.07
2017-08-01T08:22:31.855Z,11.93
2017-08-01T08:24:59.398Z,10.20
2017-08-01T08:27:26.899Z,14.50
2017-08-01T08:29:54.418Z,10.73
2017-08-01T08:32:21.921Z,7.97
2017-08-01T08:34:49.439Z,9.53
2017-08-01T08:37:16.941Z,9.13
2017-08-01T08:39:44.458Z,10.97
2017-08-01T08:42:11.955Z,8.57
2017-08-01T08:44:39.475Z,11.20
2017-08-01T08:47:06.974Z,13.00
2017-08-01T08:49:34.470Z,14.00
2017-08-01T08:52:01.990Z,10.90
2017-08-01T08:54:29.518Z,13.50
2017-08-01T08:56:57.035Z,15.23
2017-08-01T08:59:25.299Z,12.27
2017-08-01T09:01:52.851Z,8.00
2017-08-01T09:04:20.350Z,12.93
2017-08-01T09:06:47.863Z,11.80
2017-08-01T09:09:15.374Z,17.23
2017-08-01T09:11:42.914Z,13.10
2017-08-01T09:14:10.440Z,11.43
2017-08-01T09:16:37.940Z,12.63
2017-08-01T09:19:05.455Z,18.57
2017-08-01T09:21:32.954Z,13.07
2017-08-01T09:24:00.467Z,12.37
2017-08-01T09:26:27.968Z,8.63
2017-08-01T09:28:55.488Z,17.23
2017-08-01T09:31:22.991Z,11.50
2017-08-01T09:33:50.513Z,12.27
2017-08-01T09:36:18.783Z,10.93
2017-08-01T09:38:46.282Z,11.77
2017-08-01T09:41:13.802Z,11.30
2017-08-01T09:43:41.299Z,12.63
2017-08-01T09:46:08.810Z,11.00
2017-08-01T09:48:36.305Z,13.17
2017-08-01T09:51:03.822Z,12.20
2017-08-01T09:53:31.318Z,14.13
2017-08-01T09:55:58.843Z,10.00
2017-08-01T09:58:26.344Z,12.87
2017-08-01T10:00:53.855Z,11.33
2017-08-01T10:03:21.369Z,12.27
2017-08-01T10:05:48.863Z,9.03
2017-08-01T10:08:16.383Z,13.03
2017-08-01T10:10:43.879Z,11.07
2017-08-01T10:13:11.395Z,11.53
2017-08-01T10:15:38.902Z,10.37
2017-08-01T10:18:06.421Z,7.40
2017-08-01T10:20:33.918Z,11.23
2017-08-01T10:23:01.421Z,12.90
2017-08-01T10:25:29.047Z,14.77
2017-08-01T10:27:56.550Z,16.50
2017-08-01T10:30:24.064Z,10.53
2017-08-01T10:32:51.574Z,10.60
2017-08-01T10:35:19.091Z,12.47
2017-08-01T10:37:47.359Z,11.80
2017-08-01T10:40:14.881Z,13.10
2017-08-01T10:42:42.382Z,12.10
2017-08-01T10:45:09.887Z,8.90
2017-08-01T10:47:37.407Z,11.53
2017-08-01T10:50:05.378Z,11.97
2017-08-01T10:52:32.899Z,11.30
2017-08-01T10:55:00.398Z,10.47
2017-08-01T10:57:27.919Z,12.53
2017-08-01T10:59:55.429Z,13.90
2017-08-01T11:02:22.959Z,18.77
2017-08-01T11:04:51.233Z,12.60
2017-08-01T11:07:19.495Z,12.10
2017-08-01T11:09:47.019Z,11.83
2017-08-01T11:12:14.524Z,14.60
2017-08-01T11:14:42.813Z,11.83
2017-08-01T11:17:11.082Z,12.53
2017-08-01T11:19:39.367Z,9.13
2017-08-01T11:22:06.866Z,10.20
2017-08-01T11:24:34.394Z,12.67
2017-08-01T11:27:01.904Z,9.93
2017-08-01T11:29:29.431Z,12.10
2017-08-01T11:31:56.935Z,12.87
2017-08-01T11:34:24.445Z,12.70
2017-08-01T11:36:51.959Z,11.60
2017-08-01T11:39:19.459Z,12.27
2017-08-01T11:41:46.974Z,18.40
2017-08-01T11:44:14.475Z,11.97
2017-08-01T11:46:41.995Z,11.90
2017-08-01T11:49:10.267Z,10.80
2017-08-01T11:51:38.555Z,10.77
2017-08-01T11:54:06.059Z,11.60
2017-08-01T11:56:33.576Z,12.07
2017-08-01T11:59:01.852Z,13.60
2017-08-01T12:01:30.123Z,13.73
2017-08-01T12:03:58.410Z,14.20
2017-08-01T12:06:25.913Z,13.23
2017-08-01T12:08:53.438Z,14.00
2017-08-01T12:11:20.947Z,11.30
2017-08-01T12:13:48.472Z,14.90
2017-08-01T12:16:15.975Z,14.17
2017-08-01T12:18:43.491Z,9.23
2017-08-01T12:21:10.985Z,11.03
2017-08-01T12:23:38.503Z,14.87
2017-08-01T12:26:06.011Z,12.10
2017-08-01T12:28:34.283Z,18.10
2017-08-01T12:31:01.798Z,11.37
2017-08-01T12:33:29.294Z,13.73
2017-08-01T12:35:56.815Z,18.40
2017-08-01T12:38:24.317Z,10.17
2017-08-01T12:40:51.839Z,11.57
2017-08-01T12:43:19.347Z,13.63
2017-08-01T12:45:47.627Z,12.17
2017-08-01T12:48:15.891Z,12.90
2017-08-01T12:50:44.191Z,9.80
2017-08-01T12:53:11.692Z,11.87
2017-08-01T12:55:39.199Z,12.83
2017-08-01T12:58:06.716Z,14.90
2017-08-01T13:00:34.218Z,15.90
2017-08-01T13:03:02.498Z,12.30
2017-08-01T13:05:30.002Z,10.40
2017-08-01T13:07:57.518Z,12.87
2017-08-01T13:10:25.023Z,12.00
2017-08-01T13:12:52.538Z,10.00
2017-08-01T13:15:20.034Z,11.90
2017-08-01T13:17:47.571Z,11.73
2017-08-01T13:20:15.076Z,13.20
2017-08-01T13:22:42.578Z,14.90
2017-08-01T13:25:10.091Z,12.10
2017-08-01T13:27:37.598Z,11.80
2017-08-01T13:30:05.603Z,10.63
2017-08-01T13:32:33.102Z,9.87
2017-08-01T13:35:00.626Z,13.30
2017-08-01T13:37:28.123Z,16.70
2017-08-01T13:39:55.663Z,14.30
2017-08-01T13:42:23.931Z,12.30
2017-08-01T13:44:51.426Z,9.40
2017-08-01T13:47:18.938Z,15.30
2017-08-01T13:49:46.431Z,11.63
2017-08-01T13:52:13.959Z,10.83
2017-08-01T13:54:41.463Z,10.27
2017-08-01T13:57:08.986Z,21.00
2017-08-01T13:59:36.485Z,10.73
2017-08-01T14:02:04.013Z,11.03
2017-08-01T14:04:32.274Z,15.70
2017-08-01T14:07:00.541Z,10.17
2017-08-01T14:09:28.051Z,17.27
2017-08-01T14:11:55.552Z,13.83
2017-08-01T14:14:23.075Z,12.47
2017-08-01T14:16:50.570Z,10.47
2017-08-01T14:19:18.083Z,14.63
2017-08-01T14:21:45.587Z,11.90
2017-08-01T14:24:13.110Z,11.30
2017-08-01T14:26:40.606Z,10.70
2017-08-01T14:29:08.107Z,11.07
2017-08-01T14:31:35.682Z,9.57
2017-08-01T14:34:03.189Z,11.50
2017-08-01T14:36:30.707Z,15.40
2017-08-01T14:38:58.204Z,17.67
2017-08-01T14:41:25.722Z,10.97
2017-08-01T14:43:53.226Z,10.37
2017-08-01T14:46:21.530Z,14.47
2017-08-01T14:48:49.063Z,15.13
2017-08-01T14:51:17.335Z,12.20
2017-08-01T14:53:45.625Z,10.97
2017-08-01T14:56:13.132Z,14.30
2017-08-01T14:58:40.646Z,15.27
2017-08-01T15:01:08.968Z,13.07
2017-08-01T15:03:36.482Z,11.10
2017-08-01T15:06:04.746Z,10.20
2017-08-01T15:08:33.055Z,10.70
2017-08-01T15:11:00.551Z,14.40
2017-08-01T15:13:28.046Z,17.20
2017-08-01T15:15:56.326Z,10.50
2017-08-01T15:18:24.585Z,13.43
2017-08-01T15:20:52.103Z,11.30
2017-08-01T15:23:19.597Z,11.30
2017-08-01T15:25:47.110Z,15.23
2017-08-01T15:28:14.619Z,11.40
2017-08-01T15:30:42.918Z,15.07
2017-08-01T15:33:10.422Z,11.13
2017-08-01T15:35:37.923Z,12.83
2017-08-01T15:38:06.204Z,11.97
2017-08-01T15:40:33.710Z,9.57
2017-08-01T15:43:01.235Z,10.90
2017-08-01T15:45:28.739Z,10.77
2017-08-01T15:47:56.263Z,10.87
2017-08-01T15:50:23.766Z,12.77
2017-08-01T15:52:51.294Z,13.87
2017-08-01T15:55:18.798Z,10.40
2017-08-01T15:57:47.075Z,14.83
2017-08-01T16:00:15.370Z,19.13
2017-08-01T16:02:42.875Z,15.03
2017-08-01T16:05:10.390Z,13.83
2017-08-01T16:07:37.900Z,14.20
2017-08-01T16:10:05.426Z,12.10
2017-08-01T16:12:32.935Z,12.97
2017-08-01T16:15:01.248Z,15.03
2017-08-01T16:17:28.777Z,14.13
2017-08-01T16:19:56.283Z,12.93
2017-08-01T16:22:23.812Z,16.93
2017-08-01T16:24:51.319Z,14.47
2017-08-01T16:27:18.841Z,13.70
2017-08-01T16:29:46.346Z,12.10
2017-08-01T16:32:13.875Z,15.80
2017-08-01T16:34:41.379Z,15.40
2017-08-01T16:37:09.695Z,12.87
2017-08-01T16:39:37.196Z,12.40
2017-08-01T16:42:04.703Z,11.30
2017-08-01T16:44:32.219Z,15.47
2017-08-01T16:46:59.723Z,14.03
2017-08-01T16:49:27.252Z,17.53
2017-08-01T16:51:55.538Z,18.00
2017-08-01T16:54:23.067Z,18.70
2017-08-01T16:56:50.570Z,14.20
2017-08-01T16:59:18.097Z,15.50
2017-08-01T17:01:46.380Z,12.97
2017-08-01T17:04:13.922Z,15.27
2017-08-01T17:06:41.419Z,12.73
2017-08-01T17:09:08.919Z,13.50
2017-08-01T17:11:36.449Z,11.43
2017-08-01T17:14:03.960Z,15.53
2017-08-01T17:16:31.486Z,26.63
2017-08-01T17:18:58.995Z,26.30
2017-08-01T17:21:27.288Z,21.83
2017-08-01T17:23:54.799Z,43.47
2017-08-01T17:26:22.324Z,42.30
2017-08-01T17:28:49.832Z,34.23
2017-08-01T17:31:17.362Z,22.13
2017-08-01T17:33:44.871Z,60.90
2017-08-01T17:36:12.370Z,87.73
2017-08-01T17:38:39.885Z,55.07
2017-08-01T17:41:08.155Z,29.77
2017-08-01T17:43:36.443Z,16.23
2017-08-01T17:46:03.944Z,16.40
2017-08-01T17:48:31.460Z,12.30
2017-08-01T17:50:58.958Z,17.17
2017-08-01T17:53:26.486Z,23.53
2017-08-01T17:55:53.996Z,23.50
2017-08-01T17:58:21.534Z,13.27
2017-08-01T18:00:49.034Z,16.63
2017-08-01T18:03:17.307Z,18.17
2017-08-01T18:05:44.860Z,18.37
2017-08-01T18:08:12.367Z,16.57
2017-08-01T18:10:39.890Z,16.40
2017-08-01T18:13:07.398Z,24.80
2017-08-01T18:15:34.923Z,16.93
2017-08-01T18:18:02.428Z,16.33
2017-08-01T18:20:29.946Z,15.67
2017-08-01T18:22:57.454Z,15.63
2017-08-01T18:25:24.971Z,13.27
2017-08-01T18:27:52.478Z,18.17
2017-08-01T18:30:19.982Z,21.77
2017-08-01T18:32:47.503Z,14.53
2017-08-01T18:35:15.784Z,14.50
2017-08-01T18:37:44.070Z,16.90
2017-08-01T18:40:12.346Z,20.00
2017-08-01T18:42:40.634Z,13.63
2017-08-01T18:45:08.143Z,15.70
2017-08-01T18:47:35.658Z,17.97
2017-08-01T18:50:03.163Z,21.23
2017-08-01T18:52:30.683Z,21.20
2017-08-01T18:54:58.183Z,21.23
2017-08-01T18:57:25.762Z,16.00
2017-08-01T18:59:54.032Z,17.27
2017-08-01T19:02:21.537Z,27.30
2017-08-01T19:04:49.056Z,22.40
2017-08-01T19:07:17.322Z,19.90
2017-08-01T19:09:44.847Z,16.23
2017-08-01T19:12:12.356Z,15.40
2017-08-01T19:14:40.639Z,14.17
2017-08-01T19:17:08.140Z,7.97
2017-08-01T19:19:35.659Z,11.93
2017-08-01T19:22:03.159Z,9.23
2017-08-01T19:24:30.696Z,4.50
2017-08-01T19:26:58.195Z,4.37
2017-08-01T19:29:25.696Z,8.40
2017-08-01T19:31:53.215Z,7.60
2017-08-01T19:34:20.714Z,9.63
2017-08-01T19:36:48.234Z,8.50
2017-08-01T19:39:15.738Z,8.37
2017-08-01T19:41:43.250Z,7.40
2017-08-01T19:44:10.762Z,5.37
2017-08-01T19:46:38.371Z,6.80
2017-08-01T19:49:05.878Z,6.50
2017-08-01T19:51:33.427Z,6.40
2017-08-01T19:54:01.080Z,6.90
2017-08-01T19:56:28.636Z,9.73
2017-08-01T19:58:56.288Z,7.40
2017-08-01T20:01:24.701Z,5.30
2017-08-01T20:03:52.428Z,6.80
2017-08-01T20:06:19.962Z,6.23
2017-08-01T20:08:47.483Z,8.27
2017-08-01T20:11:15.048Z,6.23
2017-08-01T20:13:42.567Z,6.37
2017-08-01T20:16:10.835Z,6.80
2017-08-01T20:18:38.431Z,6.87
2017-08-01T20:21:05.931Z,5.37
2017-08-01T20:23:33.438Z,5.67
2017-08-01T20:26:00.950Z,6.20
2017-08-01T20:28:28.450Z,5.70
2017-08-01T20:30:55.971Z,11.30
2017-08-01T20:33:23.480Z,7.00
2017-08-01T20:35:51.015Z,7.80
2017-08-01T20:38:18.514Z,8.70
2017-08-01T20:40:46.033Z,11.33
2017-08-01T20:43:13.530Z,6.50
2017-08-01T20:45:41.047Z,7.33
2017-08-01T20:48:08.547Z,5.90
2017-08-01T20:50:36.096Z,13.67
2017-08-01T20:53:03.599Z,7.63
2017-08-01T20:55:31.098Z,7.00
2017-08-01T20:57:58.611Z,6.73
2017-08-01T21:00:26.111Z,7.40
2017-08-01T21:02:53.626Z,7.97
2017-08-01T21:05:21.127Z,8.07
2017-08-01T21:07:48.643Z,9.10
2017-08-01T21:10:16.147Z,11.30
2017-08-01T21:12:43.667Z,12.77
2017-08-01T21:15:11.177Z,11.53
2017-08-01T21:17:38.699Z,10.60
2017-08-01T21:20:06.203Z,7.97
2017-08-01T21:22:33.724Z,8.30
2017-08-01T21:25:01.242Z,10.50
2017-08-01T21:27:28.751Z,11.33
2017-08-01T21:29:56.275Z,11.70
2017-08-01T21:32:23.777Z,9.97
2017-08-01T21:34:51.290Z,8.80
2017-08-01T21:37:18.789Z,9.10
2017-08-01T21:39:46.307Z,10.07
2017-08-01T21:42:13.806Z,10.40
2017-08-01T21:44:41.306Z,12.23
2017-08-01T21:47:08.822Z,15.20
2017-08-01T21:49:36.322Z,14.07
2017-08-01T21:52:03.839Z,8.67
2017-08-01T21:54:31.343Z,14.10
2017-08-01T21:56:58.862Z,10.23
2017-08-01T21:59:26.362Z,13.47
2017-08-01T22:01:53.889Z,12.60
2017-08-01T22:04:21.382Z,22.63
2017-08-01T22:06:48.887Z,10.47
2017-08-01T22:09:16.403Z,12.50
2017-08-01T22:11:44.666Z,14.80
2017-08-01T22:14:12.183Z,13.80
2017-08-01T22:16:39.690Z,10.97
2017-08-01T22:19:07.202Z,11.70
2017-08-01T22:21:34.702Z,19.90
2017-08-01T22:24:02.219Z,13.40
2017-08-01T22:26:29.720Z,14.67
2017-08-01T22:28:57.242Z,17.60
2017-08-01T22:31:24.746Z,16.13
2017-08-01T22:33:52.251Z,15.40
2017-08-01T22:36:19.771Z,14.37
2017-08-01T22:38:47.276Z,18.53
2017-08-01T22:41:14.795Z,15.90
2017-08-01T22:43:42.298Z,14.67
2017-08-01T22:46:09.818Z,17.60
2017-08-01T22:48:37.323Z,17.23
2017-08-01T22:51:04.843Z,16.50
2017-08-01T22:53:32.372Z,14.57
2017-08-01T22:55:59.900Z,17.93
2017-08-01T22:58:27.407Z,16.03
2017-08-01T23:00:54.945Z,14.97
2017-08-01T23:03:22.451Z,14.90
2017-08-01T23:05:49.964Z,18.00
2017-08-01T23:08:17.491Z,19.20
2017-08-01T23:10:44.995Z,18.83
2017-08-01T23:13:13.274Z,14.70
2017-08-01T23:15:40.778Z,16.60
2017-08-01T23:18:08.290Z,15.03
2017-08-01T23:20:35.800Z,14.77
2017-08-01T23:23:03.343Z,23.67
2017-08-01T23:25:30.846Z,16.00
2017-08-01T23:27:59.114Z,14.13
2017-08-01T23:30:26.640Z,15.20
2017-08-01T23:32:54.138Z,17.00
2017-08-01T23:35:22.427Z,15.63
2017-08-01T23:37:50.699Z,18.07
2017-08-01T23:40:18.218Z,14.70
2017-08-01T23:42:45.723Z,14.13
2017-08-01T23:45:14.016Z,21.00
2017-08-01T23:47:41.526Z,14.60
2017-08-01T23:50:09.051Z,13.93
2017-08-01T23:52:36.554Z,15.67
2017-08-01T23:55:04.080Z,17.03
2017-08-01T23:57:31.587Z,17.33
2017-08-01T23:59:59.858Z,14.10
